Meteorológiai információk azoknak akik tudják olvasni.

METAR = LHBP 160130Z VRB02KT CAVOK 09/08 Q1014 NOSIG

9 órás TAF = TAF TAF LHBP 242330Z 2423/2424 30008KT CAVOK BECMG 2506/2509 24010KT OVC030 TEMPO 2509/2515 24015G25KT 8000 -RA BKN013 OVC025 BECMG 2515/2518 30008KT CAVOK

24 órás TAF = TAF TAF LHBP 151715Z 1518/1618 14005KT CAVOK BECMG 1519/1521 VRB02KT TEMPO 1600/1607 6000 MIFG BECMG 1609/1612 32007KT SCT040 TEMPO 1614/1618 -SHRA BKN035

ÁLLOMÁS.................... LHBP
ÉSZLELÉS................... Wed Oct 16, 03:30 CEST
MOST....................... Wed Oct 16, 03:59 CEST
IDŐ........................ 29 perccel ezelőtt
SZÉL....................... változó irányból 2 csomó
LÁTÁSTÁVOLSÁG.............. 10 km vagy több
FELHŐZET................... jelentős felhőzet nincs
HŐMÉRSÉKLET................ 48°F (9°C)
HARMATPONT................. 46°F (8°C)
PÁRATARTALOM............... 94%
LÉGNYOMÁS.................. 1014 hPa (29.94 in Hg)

További információ LHBP állomásról

Meteor információ kérése:        állomásról.    

 

www.tothgeza.hu

 

English version
Copyright © 2003-2019 Tóth Géza Minden jog fenntartva.